createdAt,value
2023-04-18T00:00:59.233Z,7.74
2023-04-18T00:06:02.235Z,7.77
2023-04-18T00:11:05.678Z,7.76
2023-04-18T00:16:08.594Z,7.70
2023-04-18T00:21:11.106Z,7.71
2023-04-18T00:26:14.588Z,7.77
2023-04-18T00:31:16.602Z,7.70
2023-04-18T00:36:18.553Z,7.66
2023-04-18T00:41:22.179Z,7.66
2023-04-18T00:46:24.141Z,7.63
2023-04-18T00:51:27.494Z,7.67
2023-04-18T00:56:30.767Z,7.59
2023-04-18T01:01:33.703Z,7.59
2023-04-18T01:06:36.820Z,7.64
2023-04-18T01:11:40.144Z,7.66
2023-04-18T01:16:42.333Z,7.67
2023-04-18T01:21:44.467Z,7.67
2023-04-18T01:26:48.091Z,7.75
2023-04-18T01:31:50.446Z,7.76
2023-04-18T01:36:52.485Z,7.77
2023-04-18T01:41:55.781Z,7.78
2023-04-18T01:46:57.913Z,7.73
2023-04-18T01:51:59.903Z,7.73
2023-04-18T01:57:03.389Z,7.71
2023-04-18T02:02:05.455Z,7.62
2023-04-18T02:07:07.529Z,7.63
2023-04-18T02:12:12.600Z,7.61
2023-04-18T02:17:14.602Z,7.65
2023-04-18T02:22:16.561Z,7.66
2023-04-18T02:27:19.872Z,7.61
2023-04-18T02:32:21.833Z,7.58
2023-04-18T02:37:23.851Z,7.64
2023-04-18T02:42:27.181Z,7.70
2023-04-18T02:47:30.390Z,7.63
2023-04-18T02:52:33.659Z,7.63
2023-04-18T02:57:36.954Z,7.68
2023-04-18T03:02:38.846Z,7.61
2023-04-18T03:07:40.805Z,7.60
2023-04-18T03:12:44.086Z,7.50
2023-04-18T03:17:46.027Z,7.49
2023-04-18T03:22:48.017Z,7.52
2023-04-18T03:27:51.304Z,7.50
2023-04-18T03:32:53.711Z,7.50
2023-04-18T03:37:55.630Z,7.45
2023-04-18T03:42:59.924Z,7.50
2023-04-18T03:48:02.161Z,7.51
2023-04-18T03:53:04.344Z,7.52
2023-04-18T03:58:07.815Z,7.59
2023-04-18T04:03:09.912Z,7.53
2023-04-18T04:08:12.077Z,7.61
2023-04-18T04:13:15.385Z,7.73
2023-04-18T04:18:17.355Z,7.64
2023-04-18T04:23:19.298Z,7.61
2023-04-18T04:28:23.168Z,7.71
2023-04-18T04:33:28.589Z,7.77
2023-04-18T04:38:30.984Z,7.85
2023-04-18T04:43:35.137Z,8.02
2023-04-18T04:48:37.090Z,8.09
2023-04-18T04:53:39.084Z,8.18
2023-04-18T04:58:42.470Z,8.15
2023-04-18T05:03:44.483Z,8.28
2023-04-18T05:08:46.565Z,8.17
2023-04-18T05:13:49.842Z,8.23
2023-04-18T05:54:10.474Z,8.40
2023-04-18T05:59:12.900Z,8.67
2023-04-18T06:04:15.350Z,8.80
2023-04-18T06:09:19.025Z,8.86
2023-04-18T06:14:20.962Z,8.97
2023-04-18T06:19:23.082Z,8.91
2023-04-18T06:24:26.407Z,8.65
2023-04-18T06:29:30.290Z,8.65
2023-04-18T06:34:32.254Z,8.51
2023-04-18T06:39:35.632Z,8.57
2023-04-18T06:44:37.703Z,8.52
2023-04-18T06:49:39.613Z,8.41
2023-04-18T06:54:42.918Z,8.66
2023-04-18T06:59:44.910Z,8.61
2023-04-18T07:04:47.221Z,8.68
2023-04-18T07:09:52.674Z,8.84
2023-04-18T07:14:55.021Z,8.87
2023-04-18T07:19:58.299Z,8.94
2023-04-18T07:25:01.550Z,9.29
2023-04-18T07:30:03.860Z,9.48
2023-04-18T07:35:06.244Z,9.77
2023-04-18T07:40:10.771Z,9.94
2023-04-18T07:45:12.740Z,10.10
2023-04-18T07:50:14.725Z,10.26
2023-04-18T07:55:18.398Z,10.32
2023-04-18T08:00:20.883Z,10.18
2023-04-18T08:05:22.920Z,10.10
2023-04-18T08:10:26.758Z,10.12
2023-04-18T08:15:29.117Z,10.38
2023-04-18T08:20:31.345Z,10.93
2023-04-18T08:25:36.209Z,11.00
2023-04-18T08:30:38.281Z,11.16
2023-04-18T08:35:40.852Z,11.21
2023-04-18T08:40:45.346Z,11.22
2023-04-18T08:45:48.387Z,11.54
2023-04-18T08:50:51.224Z,11.66
2023-04-18T08:55:56.242Z,11.85
2023-04-18T09:00:58.307Z,11.78
2023-04-18T09:06:08.264Z,11.93
2023-04-18T09:11:26.076Z,12.24
2023-04-18T09:16:29.235Z,11.87
2023-04-18T09:21:32.728Z,11.24
2023-04-18T09:26:36.405Z,10.86
2023-04-18T09:31:55.169Z,11.13
2023-04-18T09:37:08.827Z,11.32
2023-04-18T09:42:18.369Z,11.63
2023-04-18T09:47:27.025Z,11.86
2023-04-18T09:52:33.106Z,11.76
2023-04-18T09:57:40.578Z,11.71
2023-04-18T10:02:50.653Z,11.86
2023-04-18T10:07:54.350Z,11.82
2023-04-18T10:12:59.590Z,12.18
2023-04-18T10:18:06.938Z,12.21
2023-04-18T10:23:34.982Z,11.99
2023-04-18T10:28:53.301Z,12.58
2023-04-18T10:39:19.730Z,12.98
2023-04-18T10:44:23.682Z,12.86
2023-04-18T10:49:28.853Z,12.96
2023-04-18T10:54:38.061Z,12.76
2023-04-18T10:59:42.679Z,12.93
2023-04-18T11:04:49.765Z,12.74
2023-04-18T11:09:53.146Z,12.65
2023-04-18T11:14:56.861Z,12.61
2023-04-18T11:20:07.679Z,13.27
2023-04-18T11:25:10.843Z,12.76
2023-04-18T11:30:15.299Z,12.79
2023-04-18T11:35:17.626Z,13.06
2023-04-18T11:40:19.662Z,12.82
2023-04-18T11:45:22.982Z,12.66
2023-04-18T11:50:26.401Z,12.64
2023-04-18T11:55:28.433Z,12.58
2023-04-18T12:00:34.169Z,12.83
2023-04-18T12:05:37.984Z,13.44
2023-04-18T12:10:46.445Z,13.58
2023-04-18T12:15:49.858Z,13.74
2023-04-18T12:20:54.190Z,14.00
2023-04-18T12:25:59.529Z,13.82
2023-04-18T12:31:05.865Z,14.09
2023-04-18T12:36:10.399Z,14.19
2023-04-18T12:41:12.622Z,14.29
2023-04-18T12:46:16.114Z,13.76
2023-04-18T12:51:18.156Z,13.72
2023-04-18T12:56:21.024Z,13.71
2023-04-18T13:01:24.418Z,13.58
2023-04-18T13:06:26.439Z,13.49
2023-04-18T13:11:29.006Z,13.49
2023-04-18T13:16:32.381Z,13.72
2023-04-18T13:21:34.368Z,13.57
2023-04-18T13:26:37.532Z,13.85
2023-04-18T13:31:40.984Z,13.81
2023-04-18T13:36:43.124Z,14.13
2023-04-18T13:41:45.576Z,14.13
2023-04-18T13:46:48.938Z,13.99
2023-04-18T13:51:53.478Z,14.38
2023-04-18T13:56:59.581Z,14.81
2023-04-18T14:02:03.093Z,14.39
2023-04-18T14:07:06.282Z,13.93
2023-04-18T14:12:08.493Z,13.74
2023-04-18T14:17:11.899Z,13.67
2023-04-18T14:22:13.901Z,13.85
2023-04-18T14:27:15.859Z,13.94
2023-04-18T14:32:19.331Z,13.77
2023-04-18T14:37:22.243Z,13.47
2023-04-18T14:42:24.304Z,13.45
2023-04-18T14:47:34.263Z,13.27
2023-04-18T14:52:36.407Z,13.06
2023-04-18T14:57:39.302Z,13.27
2023-04-18T15:02:42.889Z,13.18
2023-04-18T15:07:45.139Z,13.21
2023-04-18T15:12:47.292Z,13.22
2023-04-18T15:17:50.664Z,13.32
2023-04-18T15:22:52.653Z,13.53
2023-04-18T15:27:54.609Z,13.36
2023-04-18T15:32:58.612Z,13.17
2023-04-18T15:38:00.784Z,13.14
2023-04-18T15:43:02.750Z,13.11
2023-04-18T15:48:06.776Z,13.14
2023-04-18T15:53:08.772Z,13.10
2023-04-18T15:58:10.897Z,13.30
2023-04-18T16:03:14.252Z,13.42
2023-04-18T16:08:16.559Z,13.70
2023-04-18T16:13:18.639Z,13.64
2023-04-18T16:18:22.008Z,13.66
2023-04-18T16:23:25.108Z,13.52
2023-04-18T16:28:27.068Z,13.32
2023-04-18T16:33:30.757Z,13.19
2023-04-18T16:38:32.949Z,13.09
2023-04-18T16:43:37.866Z,12.97
2023-04-18T16:48:41.727Z,12.83
2023-04-18T16:53:44.497Z,12.66
2023-04-18T16:58:46.759Z,12.60
2023-04-18T17:03:50.286Z,12.34
2023-04-18T17:08:53.471Z,12.10
2023-04-18T17:13:55.410Z,12.12
2023-04-18T17:18:58.728Z,12.11
2023-04-18T17:24:03.569Z,11.93
2023-04-18T17:29:05.725Z,11.92
2023-04-18T17:34:09.045Z,11.85
2023-04-18T17:39:11.095Z,11.78
2023-04-18T17:44:13.060Z,11.70
2023-04-18T17:49:16.776Z,11.69
2023-04-18T17:54:18.789Z,11.47
2023-04-18T17:59:20.913Z,11.45
2023-04-18T18:04:26.517Z,11.33
2023-04-18T18:09:28.759Z,11.23
2023-04-18T18:14:30.850Z,11.30
2023-04-18T18:19:38.679Z,11.20
2023-04-18T18:24:40.816Z,11.10
2023-04-18T18:29:42.835Z,10.91
2023-04-18T18:34:46.276Z,10.71
2023-04-18T18:39:48.322Z,10.62
2023-04-18T18:44:50.518Z,10.53
2023-04-18T18:49:53.854Z,10.54
2023-04-18T18:54:56.033Z,10.58
2023-04-18T18:59:58.020Z,10.56
2023-04-18T19:05:01.402Z,10.57
2023-04-18T19:10:04.604Z,10.61
2023-04-18T19:15:07.842Z,10.86
2023-04-18T19:20:11.258Z,10.89
2023-04-18T19:25:13.234Z,10.94
2023-04-18T19:30:15.376Z,10.96
2023-04-18T19:35:18.731Z,10.92
2023-04-18T19:40:20.763Z,10.82
2023-04-18T19:45:22.741Z,10.63
2023-04-18T19:50:26.304Z,10.48
2023-04-18T19:55:28.371Z,10.55
2023-04-18T20:00:30.417Z,10.41
2023-04-18T20:05:33.786Z,10.25
2023-04-18T20:10:37.347Z,10.35
2023-04-18T20:15:39.588Z,10.18
2023-04-18T20:20:43.033Z,10.29
2023-04-18T20:25:44.970Z,10.21
2023-04-18T20:30:47.911Z,10.18
2023-04-18T20:35:51.383Z,10.17
2023-04-18T20:40:54.185Z,10.24
2023-04-18T20:45:58.590Z,10.19
2023-04-18T20:51:01.936Z,10.18
2023-04-18T20:56:04.114Z,10.10
2023-04-18T21:01:06.973Z,10.13
2023-04-18T21:06:10.544Z,10.09
2023-04-18T21:11:12.551Z,10.12
2023-04-18T21:16:14.808Z,10.09
2023-04-18T21:21:18.223Z,10.00
2023-04-18T21:26:20.203Z,9.90
2023-04-18T21:31:22.190Z,9.83
2023-04-18T21:36:27.376Z,9.90
2023-04-18T21:41:29.536Z,9.78
2023-04-18T21:46:31.507Z,9.72
2023-04-18T21:51:34.839Z,9.72
2023-04-18T21:56:36.839Z,9.68
2023-04-18T22:01:39.063Z,9.49
2023-04-18T22:06:42.384Z,9.28
2023-04-18T22:11:44.306Z,9.15
2023-04-18T22:16:46.300Z,9.07
2023-04-18T22:21:49.640Z,8.97
2023-04-18T22:26:51.715Z,8.83
2023-04-18T22:31:53.643Z,8.82
2023-04-18T22:36:57.028Z,8.74
2023-04-18T22:41:58.953Z,8.85
2023-04-18T22:47:01.353Z,8.87
2023-04-18T22:52:06.126Z,8.89
2023-04-18T22:57:08.170Z,8.85
2023-04-18T23:02:10.676Z,8.62
2023-04-18T23:07:14.151Z,8.67
2023-04-18T23:12:16.240Z,8.57
2023-04-18T23:17:18.309Z,8.42
2023-04-18T23:22:23.975Z,8.48
2023-04-18T23:27:25.949Z,8.51
2023-04-18T23:32:27.927Z,8.39
2023-04-18T23:37:31.562Z,8.49
2023-04-18T23:42:37.011Z,8.65
2023-04-18T23:47:39.103Z,8.75
2023-04-18T23:52:42.448Z,9.00
2023-04-18T23:57:44.417Z,8.93
